Miami, Florida
Traffic Map
Current Weather Conditions
Miami, Florida
Broken Clouds
Broken Clouds
29°
Feels Like: 30°
Wind Chill: 29° Ceiling: 25000
Heat Index: 30° Visibility: 10mi
Dew Point: 19° Wind: 12mph
Humidity: 56% Direction: 100° (E)
Pressure: 30in Gusts: 0mph
Raw Report DataKMIA 302153Z 10010KT 10SM FEW036 SCT055 BKN250 29/19 A3000 RMK AO2 SLP157 CB DSNT W-NW T02890194
Traffic Incident Summary
Active as of:
Severity:
Category:
InformationThere was an issue retrieving the traffic information for this location. Please try a different location or try again shortly.
Advertisements
Track Severe Weather on mobile